sensor_id;sensor_type;location;lat;lon;timestamp;temperature;humidity
48936;DHT22;34745;52.276;10.528;2023-10-31T00:00:20;12.60;99.90
48936;DHT22;34745;52.276;10.528;2023-10-31T00:02:47;12.60;99.90
48936;DHT22;34745;52.276;10.528;2023-10-31T00:05:14;12.60;99.90
48936;DHT22;34745;52.276;10.528;2023-10-31T00:07:44;12.70;99.90
48936;DHT22;34745;52.276;10.528;2023-10-31T00:10:11;12.60;99.90
48936;DHT22;34745;52.276;10.528;2023-10-31T00:12:40;12.60;99.90
48936;DHT22;34745;52.276;10.528;2023-10-31T00:15:07;12.60;99.90
48936;DHT22;34745;52.276;10.528;2023-10-31T00:17:34;12.60;99.90
48936;DHT22;34745;52.276;10.528;2023-10-31T00:20:01;12.60;99.90
48936;DHT22;34745;52.276;10.528;2023-10-31T00:22:29;12.60;99.90
48936;DHT22;34745;52.276;10.528;2023-10-31T00:24:56;12.60;99.90
48936;DHT22;34745;52.276;10.528;2023-10-31T00:27:23;12.60;99.90
48936;DHT22;34745;52.276;10.528;2023-10-31T00:29:51;12.60;99.90
48936;DHT22;34745;52.276;10.528;2023-10-31T00:32:19;12.50;99.90
48936;DHT22;34745;52.276;10.528;2023-10-31T00:34:46;12.50;99.90
48936;DHT22;34745;52.276;10.528;2023-10-31T00:37:13;12.50;99.90
48936;DHT22;34745;52.276;10.528;2023-10-31T00:39:40;12.50;99.90
48936;DHT22;34745;52.276;10.528;2023-10-31T00:42:08;12.60;99.90
48936;DHT22;34745;52.276;10.528;2023-10-31T00:44:35;12.50;99.90
48936;DHT22;34745;52.276;10.528;2023-10-31T00:47:04;12.50;99.90
48936;DHT22;34745;52.276;10.528;2023-10-31T00:49:32;12.50;99.90
48936;DHT22;34745;52.276;10.528;2023-10-31T00:51:59;12.60;99.90
48936;DHT22;34745;52.276;10.528;2023-10-31T00:54:26;12.50;99.90
48936;DHT22;34745;52.276;10.528;2023-10-31T00:56:52;12.40;99.90
48936;DHT22;34745;52.276;10.528;2023-10-31T00:59:20;12.40;99.90
48936;DHT22;34745;52.276;10.528;2023-10-31T01:01:47;12.40;99.90
48936;DHT22;34745;52.276;10.528;2023-10-31T01:04:15;12.50;99.90
48936;DHT22;34745;52.276;10.528;2023-10-31T01:06:42;12.50;99.90
48936;DHT22;34745;52.276;10.528;2023-10-31T01:09:09;12.40;99.90
48936;DHT22;34745;52.276;10.528;2023-10-31T01:11:37;12.40;99.90
48936;DHT22;34745;52.276;10.528;2023-10-31T01:14:04;12.40;99.90
48936;DHT22;34745;52.276;10.528;2023-10-31T01:16:31;12.40;99.90
48936;DHT22;34745;52.276;10.528;2023-10-31T01:18:58;12.40;99.90
48936;DHT22;34745;52.276;10.528;2023-10-31T01:21:26;12.30;99.90
48936;DHT22;34745;52.276;10.528;2023-10-31T01:23:53;12.50;99.90
48936;DHT22;34745;52.276;10.528;2023-10-31T01:26:20;12.40;99.90
48936;DHT22;34745;52.276;10.528;2023-10-31T01:28:48;12.30;99.90
48936;DHT22;34745;52.276;10.528;2023-10-31T01:31:15;12.30;99.90
48936;DHT22;34745;52.276;10.528;2023-10-31T01:33:42;12.40;99.90
48936;DHT22;34745;52.276;10.528;2023-10-31T01:36:10;12.40;99.90
48936;DHT22;34745;52.276;10.528;2023-10-31T01:38:40;12.40;99.90
48936;DHT22;34745;52.276;10.528;2023-10-31T01:41:07;12.40;99.90
48936;DHT22;34745;52.276;10.528;2023-10-31T01:43:37;12.40;99.90
48936;DHT22;34745;52.276;10.528;2023-10-31T01:46:04;12.30;99.90
48936;DHT22;34745;52.276;10.528;2023-10-31T01:48:33;12.30;99.90
48936;DHT22;34745;52.276;10.528;2023-10-31T01:51:03;12.30;99.90
48936;DHT22;34745;52.276;10.528;2023-10-31T01:53:32;12.20;99.90
48936;DHT22;34745;52.276;10.528;2023-10-31T01:56:04;12.30;99.90
48936;DHT22;34745;52.276;10.528;2023-10-31T01:58:34;12.30;99.90
48936;DHT22;34745;52.276;10.528;2023-10-31T02:01:02;12.30;99.90
48936;DHT22;34745;52.276;10.528;2023-10-31T02:03:31;12.30;99.90
48936;DHT22;34745;52.276;10.528;2023-10-31T02:05:58;12.30;99.90
48936;DHT22;34745;52.276;10.528;2023-10-31T02:08:26;12.40;99.90
48936;DHT22;34745;52.276;10.528;2023-10-31T02:10:52;12.30;99.90
48936;DHT22;34745;52.276;10.528;2023-10-31T02:13:21;12.30;99.90
48936;DHT22;34745;52.276;10.528;2023-10-31T02:15:48;12.30;99.90
48936;DHT22;34745;52.276;10.528;2023-10-31T02:18:16;12.30;99.90
48936;DHT22;34745;52.276;10.528;2023-10-31T02:20:44;12.30;99.90
48936;DHT22;34745;52.276;10.528;2023-10-31T02:23:15;12.30;99.90
48936;DHT22;34745;52.276;10.528;2023-10-31T02:25:42;12.20;99.90
48936;DHT22;34745;52.276;10.528;2023-10-31T02:28:09;12.20;99.90
48936;DHT22;34745;52.276;10.528;2023-10-31T02:30:37;12.30;99.90
48936;DHT22;34745;52.276;10.528;2023-10-31T02:33:04;12.30;99.90
48936;DHT22;34745;52.276;10.528;2023-10-31T02:35:31;12.30;99.90
48936;DHT22;34745;52.276;10.528;2023-10-31T02:37:58;12.30;99.90
48936;DHT22;34745;52.276;10.528;2023-10-31T02:40:27;12.40;99.90
48936;DHT22;34745;52.276;10.528;2023-10-31T02:42:54;12.30;99.90
48936;DHT22;34745;52.276;10.528;2023-10-31T02:45:21;12.40;99.90
48936;DHT22;34745;52.276;10.528;2023-10-31T02:47:48;12.30;99.90
48936;DHT22;34745;52.276;10.528;2023-10-31T02:50:15;12.30;99.90
48936;DHT22;34745;52.276;10.528;2023-10-31T02:52:42;12.40;99.90
48936;DHT22;34745;52.276;10.528;2023-10-31T02:55:09;12.40;99.90
48936;DHT22;34745;52.276;10.528;2023-10-31T02:57:37;12.40;99.90
48936;DHT22;34745;52.276;10.528;2023-10-31T03:00:06;12.40;99.90
48936;DHT22;34745;52.276;10.528;2023-10-31T03:02:33;12.40;99.90
48936;DHT22;34745;52.276;10.528;2023-10-31T03:05:00;12.40;99.90
48936;DHT22;34745;52.276;10.528;2023-10-31T03:07:27;12.40;99.90
48936;DHT22;34745;52.276;10.528;2023-10-31T03:09:55;12.40;99.90
48936;DHT22;34745;52.276;10.528;2023-10-31T03:12:22;12.50;99.90
48936;DHT22;34745;52.276;10.528;2023-10-31T03:14:50;12.40;99.90
48936;DHT22;34745;52.276;10.528;2023-10-31T03:17:17;12.40;99.90
48936;DHT22;34745;52.276;10.528;2023-10-31T03:19:44;12.40;99.90
48936;DHT22;34745;52.276;10.528;2023-10-31T03:22:12;12.40;99.90
48936;DHT22;34745;52.276;10.528;2023-10-31T03:24:40;12.40;99.90
48936;DHT22;34745;52.276;10.528;2023-10-31T03:27:07;12.50;99.90
48936;DHT22;34745;52.276;10.528;2023-10-31T03:29:34;12.40;99.90
48936;DHT22;34745;52.276;10.528;2023-10-31T03:32:02;12.40;99.90
48936;DHT22;34745;52.276;10.528;2023-10-31T03:34:29;12.40;99.90
48936;DHT22;34745;52.276;10.528;2023-10-31T03:36:56;12.40;99.90
48936;DHT22;34745;52.276;10.528;2023-10-31T03:39:23;12.40;99.90
48936;DHT22;34745;52.276;10.528;2023-10-31T03:41:51;12.40;99.90
48936;DHT22;34745;52.276;10.528;2023-10-31T03:44:18;12.30;99.90
48936;DHT22;34745;52.276;10.528;2023-10-31T03:46:45;12.40;99.90
48936;DHT22;34745;52.276;10.528;2023-10-31T03:49:13;12.40;99.90
48936;DHT22;34745;52.276;10.528;2023-10-31T03:51:40;12.40;99.90
48936;DHT22;34745;52.276;10.528;2023-10-31T03:54:07;12.30;99.90
48936;DHT22;34745;52.276;10.528;2023-10-31T03:56:38;12.30;99.90
48936;DHT22;34745;52.276;10.528;2023-10-31T03:59:06;12.40;99.90
48936;DHT22;34745;52.276;10.528;2023-10-31T04:01:33;12.30;99.90
48936;DHT22;34745;52.276;10.528;2023-10-31T04:04:00;12.30;99.90
48936;DHT22;34745;52.276;10.528;2023-10-31T04:06:28;12.30;99.90
48936;DHT22;34745;52.276;10.528;2023-10-31T04:08:55;12.40;99.90
48936;DHT22;34745;52.276;10.528;2023-10-31T04:11:22;12.40;99.90
48936;DHT22;34745;52.276;10.528;2023-10-31T04:13:51;12.50;99.90
48936;DHT22;34745;52.276;10.528;2023-10-31T04:16:18;12.50;99.90
48936;DHT22;34745;52.276;10.528;2023-10-31T04:18:45;12.90;99.90
48936;DHT22;34745;52.276;10.528;2023-10-31T04:21:12;12.70;99.90
48936;DHT22;34745;52.276;10.528;2023-10-31T04:23:41;12.80;99.90
48936;DHT22;34745;52.276;10.528;2023-10-31T04:26:08;12.70;99.90
48936;DHT22;34745;52.276;10.528;2023-10-31T04:28:35;12.80;99.90
48936;DHT22;34745;52.276;10.528;2023-10-31T04:31:02;12.80;99.90
48936;DHT22;34745;52.276;10.528;2023-10-31T04:33:29;12.70;49.30
48936;DHT22;34745;52.276;10.528;2023-10-31T04:35:56;12.60;42.10
48936;DHT22;34745;52.276;10.528;2023-10-31T04:38:23;12.60;48.10
48936;DHT22;34745;52.276;10.528;2023-10-31T04:40:52;12.50;47.50
48936;DHT22;34745;52.276;10.528;2023-10-31T04:43:19;12.40;41.10
48936;DHT22;34745;52.276;10.528;2023-10-31T04:45:46;12.40;40.10
48936;DHT22;34745;52.276;10.528;2023-10-31T04:48:13;12.30;44.10
48936;DHT22;34745;52.276;10.528;2023-10-31T04:50:40;12.30;44.60
48936;DHT22;34745;52.276;10.528;2023-10-31T04:53:07;12.30;47.00
48936;DHT22;34745;52.276;10.528;2023-10-31T04:55:34;12.30;45.60
48936;DHT22;34745;52.276;10.528;2023-10-31T04:58:03;12.20;23.60
48936;DHT22;34745;52.276;10.528;2023-10-31T05:00:30;12.20;28.70
48936;DHT22;34745;52.276;10.528;2023-10-31T05:02:57;12.20;27.50
48936;DHT22;34745;52.276;10.528;2023-10-31T05:05:25;12.10;19.70
48936;DHT22;34745;52.276;10.528;2023-10-31T05:07:52;12.10;33.10
48936;DHT22;34745;52.276;10.528;2023-10-31T05:10:19;12.10;15.30
48936;DHT22;34745;52.276;10.528;2023-10-31T05:12:46;12.10;13.30
48936;DHT22;34745;52.276;10.528;2023-10-31T05:15:15;12.10;14.40
48936;DHT22;34745;52.276;10.528;2023-10-31T05:17:42;12.00;11.90
48936;DHT22;34745;52.276;10.528;2023-10-31T05:20:10;12.00;7.70
48936;DHT22;34745;52.276;10.528;2023-10-31T05:22:37;11.90;3.10
48936;DHT22;34745;52.276;10.528;2023-10-31T05:25:05;11.90;6.60
48936;DHT22;34745;52.276;10.528;2023-10-31T05:27:32;11.90;1.00
48936;DHT22;34745;52.276;10.528;2023-10-31T05:30:00;11.90;1.00
48936;DHT22;34745;52.276;10.528;2023-10-31T05:32:29;11.90;1.00
48936;DHT22;34745;52.276;10.528;2023-10-31T05:34:56;11.90;1.00
48936;DHT22;34745;52.276;10.528;2023-10-31T05:37:26;11.90;1.00
48936;DHT22;34745;52.276;10.528;2023-10-31T05:39:53;11.80;1.00
48936;DHT22;34745;52.276;10.528;2023-10-31T05:42:20;11.80;1.00
48936;DHT22;34745;52.276;10.528;2023-10-31T05:44:47;11.80;1.00
48936;DHT22;34745;52.276;10.528;2023-10-31T05:47:14;11.80;1.00
48936;DHT22;34745;52.276;10.528;2023-10-31T05:49:44;11.80;1.00
48936;DHT22;34745;52.276;10.528;2023-10-31T05:52:11;11.80;1.00
48936;DHT22;34745;52.276;10.528;2023-10-31T05:54:38;11.80;1.00
48936;DHT22;34745;52.276;10.528;2023-10-31T05:57:05;11.80;1.00
48936;DHT22;34745;52.276;10.528;2023-10-31T05:59:32;11.80;1.00
48936;DHT22;34745;52.276;10.528;2023-10-31T06:01:59;11.80;1.00
48936;DHT22;34745;52.276;10.528;2023-10-31T06:04:26;11.70;1.00
48936;DHT22;34745;52.276;10.528;2023-10-31T06:06:55;11.70;1.00
48936;DHT22;34745;52.276;10.528;2023-10-31T06:09:22;11.70;1.00
48936;DHT22;34745;52.276;10.528;2023-10-31T06:11:49;11.70;1.00
48936;DHT22;34745;52.276;10.528;2023-10-31T06:14:16;11.70;1.00
48936;DHT22;34745;52.276;10.528;2023-10-31T06:16:44;11.70;1.00
48936;DHT22;34745;52.276;10.528;2023-10-31T06:19:11;11.80;1.00
48936;DHT22;34745;52.276;10.528;2023-10-31T06:21:38;11.70;1.00
48936;DHT22;34745;52.276;10.528;2023-10-31T06:24:07;11.60;1.00
48936;DHT22;34745;52.276;10.528;2023-10-31T06:26:35;11.60;1.00
48936;DHT22;34745;52.276;10.528;2023-10-31T06:29:02;11.60;1.00
48936;DHT22;34745;52.276;10.528;2023-10-31T06:31:34;11.50;1.00
48936;DHT22;34745;52.276;10.528;2023-10-31T06:34:01;11.50;1.00
48936;DHT22;34745;52.276;10.528;2023-10-31T06:36:29;11.40;1.00
48936;DHT22;34745;52.276;10.528;2023-10-31T06:38:56;11.40;1.00
48936;DHT22;34745;52.276;10.528;2023-10-31T06:41:24;11.40;1.00
48936;DHT22;34745;52.276;10.528;2023-10-31T06:43:51;11.30;1.00
48936;DHT22;34745;52.276;10.528;2023-10-31T06:46:18;11.30;1.00
48936;DHT22;34745;52.276;10.528;2023-10-31T06:48:45;11.50;1.00
48936;DHT22;34745;52.276;10.528;2023-10-31T06:51:12;11.30;1.00
48936;DHT22;34745;52.276;10.528;2023-10-31T06:53:39;11.20;1.00
48936;DHT22;34745;52.276;10.528;2023-10-31T06:56:07;11.30;1.00
48936;DHT22;34745;52.276;10.528;2023-10-31T06:58:35;11.20;1.00
48936;DHT22;34745;52.276;10.528;2023-10-31T07:01:03;11.20;1.00
48936;DHT22;34745;52.276;10.528;2023-10-31T07:03:30;11.20;1.00
48936;DHT22;34745;52.276;10.528;2023-10-31T07:05:57;11.30;1.00
48936;DHT22;34745;52.276;10.528;2023-10-31T07:08:26;11.20;1.00
48936;DHT22;34745;52.276;10.528;2023-10-31T07:10:53;11.20;1.00
48936;DHT22;34745;52.276;10.528;2023-10-31T07:13:20;11.20;1.00
48936;DHT22;34745;52.276;10.528;2023-10-31T07:15:48;11.20;1.00
48936;DHT22;34745;52.276;10.528;2023-10-31T07:18:15;11.20;1.00
48936;DHT22;34745;52.276;10.528;2023-10-31T07:20:42;11.20;1.00
48936;DHT22;34745;52.276;10.528;2023-10-31T07:23:09;11.20;1.00
48936;DHT22;34745;52.276;10.528;2023-10-31T07:25:36;11.20;1.00
48936;DHT22;34745;52.276;10.528;2023-10-31T07:28:03;11.20;1.00
48936;DHT22;34745;52.276;10.528;2023-10-31T07:30:30;11.20;1.00
48936;DHT22;34745;52.276;10.528;2023-10-31T07:32:59;11.20;1.00
48936;DHT22;34745;52.276;10.528;2023-10-31T07:35:27;11.30;1.00
48936;DHT22;34745;52.276;10.528;2023-10-31T07:37:54;11.50;10.20
48936;DHT22;34745;52.276;10.528;2023-10-31T07:40:21;11.70;1.00
48936;DHT22;34745;52.276;10.528;2023-10-31T07:42:49;11.80;1.00
48936;DHT22;34745;52.276;10.528;2023-10-31T07:45:16;11.90;1.00
48936;DHT22;34745;52.276;10.528;2023-10-31T07:47:43;11.90;1.00
48936;DHT22;34745;52.276;10.528;2023-10-31T07:50:11;11.90;1.00
48936;DHT22;34745;52.276;10.528;2023-10-31T07:52:40;11.90;1.00
48936;DHT22;34745;52.276;10.528;2023-10-31T07:55:07;11.90;1.00
48936;DHT22;34745;52.276;10.528;2023-10-31T07:57:35;11.90;1.00
48936;DHT22;34745;52.276;10.528;2023-10-31T08:00:03;11.90;1.00
48936;DHT22;34745;52.276;10.528;2023-10-31T08:02:31;11.80;1.00
48936;DHT22;34745;52.276;10.528;2023-10-31T08:04:58;11.70;1.00
48936;DHT22;34745;52.276;10.528;2023-10-31T08:07:26;11.70;1.00
48936;DHT22;34745;52.276;10.528;2023-10-31T08:09:56;11.70;1.00
48936;DHT22;34745;52.276;10.528;2023-10-31T08:12:23;11.60;1.00
48936;DHT22;34745;52.276;10.528;2023-10-31T08:14:50;11.60;1.00
48936;DHT22;34745;52.276;10.528;2023-10-31T08:17:18;11.60;1.00
48936;DHT22;34745;52.276;10.528;2023-10-31T08:19:45;11.60;1.00
48936;DHT22;34745;52.276;10.528;2023-10-31T08:22:13;11.70;1.00
48936;DHT22;34745;52.276;10.528;2023-10-31T08:24:42;11.70;1.00
48936;DHT22;34745;52.276;10.528;2023-10-31T08:27:09;11.60;1.00
48936;DHT22;34745;52.276;10.528;2023-10-31T08:29:37;11.60;1.00
48936;DHT22;34745;52.276;10.528;2023-10-31T08:32:05;11.70;1.00
48936;DHT22;34745;52.276;10.528;2023-10-31T08:34:32;11.60;1.00
48936;DHT22;34745;52.276;10.528;2023-10-31T08:37:00;11.60;1.00
48936;DHT22;34745;52.276;10.528;2023-10-31T08:39:30;11.60;1.00
48936;DHT22;34745;52.276;10.528;2023-10-31T08:41:59;11.70;1.00
48936;DHT22;34745;52.276;10.528;2023-10-31T08:44:26;11.70;1.00
48936;DHT22;34745;52.276;10.528;2023-10-31T08:46:53;11.70;1.00
48936;DHT22;34745;52.276;10.528;2023-10-31T08:49:20;11.80;1.00
48936;DHT22;34745;52.276;10.528;2023-10-31T08:51:47;11.80;1.00
48936;DHT22;34745;52.276;10.528;2023-10-31T08:54:14;11.80;1.00
48936;DHT22;34745;52.276;10.528;2023-10-31T08:56:41;11.70;2.90
48936;DHT22;34745;52.276;10.528;2023-10-31T08:59:13;11.60;31.90
48936;DHT22;34745;52.276;10.528;2023-10-31T09:01:40;11.40;65.40
48936;DHT22;34745;52.276;10.528;2023-10-31T09:04:07;11.30;79.70
48936;DHT22;34745;52.276;10.528;2023-10-31T09:06:34;11.10;91.80
48936;DHT22;34745;52.276;10.528;2023-10-31T09:09:01;11.00;99.90
48936;DHT22;34745;52.276;10.528;2023-10-31T09:11:28;11.00;99.90
48936;DHT22;34745;52.276;10.528;2023-10-31T09:13:55;11.00;99.90
48936;DHT22;34745;52.276;10.528;2023-10-31T09:16:24;11.00;99.90
48936;DHT22;34745;52.276;10.528;2023-10-31T09:18:51;11.10;99.90
48936;DHT22;34745;52.276;10.528;2023-10-31T09:21:18;11.20;99.90
48936;DHT22;34745;52.276;10.528;2023-10-31T09:23:46;11.30;99.30
48936;DHT22;34745;52.276;10.528;2023-10-31T09:26:13;11.20;72.20
48936;DHT22;34745;52.276;10.528;2023-10-31T09:28:41;11.20;74.30
48936;DHT22;34745;52.276;10.528;2023-10-31T09:31:16;11.30;74.90
48936;DHT22;34745;52.276;10.528;2023-10-31T09:33:46;11.30;58.00
48936;DHT22;34745;52.276;10.528;2023-10-31T09:36:13;11.40;51.20
48936;DHT22;34745;52.276;10.528;2023-10-31T09:38:41;11.40;52.50
48936;DHT22;34745;52.276;10.528;2023-10-31T09:41:08;11.40;38.70
48936;DHT22;34745;52.276;10.528;2023-10-31T09:43:36;11.50;45.10
48936;DHT22;34745;52.276;10.528;2023-10-31T09:46:03;11.60;31.10
48936;DHT22;34745;52.276;10.528;2023-10-31T09:48:32;11.60;13.50
48936;DHT22;34745;52.276;10.528;2023-10-31T09:51:02;11.70;6.50
48936;DHT22;34745;52.276;10.528;2023-10-31T09:53:30;11.80;1.00
48936;DHT22;34745;52.276;10.528;2023-10-31T09:55:59;11.80;1.00
48936;DHT22;34745;52.276;10.528;2023-10-31T09:58:26;12.00;1.00
48936;DHT22;34745;52.276;10.528;2023-10-31T10:00:53;11.90;1.00
48936;DHT22;34745;52.276;10.528;2023-10-31T10:03:20;12.10;1.00
48936;DHT22;34745;52.276;10.528;2023-10-31T10:05:49;11.90;1.00
48936;DHT22;34745;52.276;10.528;2023-10-31T10:08:17;12.00;1.00
48936;DHT22;34745;52.276;10.528;2023-10-31T10:10:46;12.10;1.00
48936;DHT22;34745;52.276;10.528;2023-10-31T10:13:13;12.10;1.00
48936;DHT22;34745;52.276;10.528;2023-10-31T10:15:44;12.10;1.00
48936;DHT22;34745;52.276;10.528;2023-10-31T10:18:24;12.00;1.00
48936;DHT22;34745;52.276;10.528;2023-10-31T10:20:55;12.00;1.00
48936;DHT22;34745;52.276;10.528;2023-10-31T10:23:25;12.10;1.00
48936;DHT22;34745;52.276;10.528;2023-10-31T10:25:54;11.80;1.00
48936;DHT22;34745;52.276;10.528;2023-10-31T10:28:21;11.70;1.00
48936;DHT22;34745;52.276;10.528;2023-10-31T10:30:49;11.70;1.00
48936;DHT22;34745;52.276;10.528;2023-10-31T10:33:16;11.70;1.00
48936;DHT22;34745;52.276;10.528;2023-10-31T10:35:44;11.80;1.00
48936;DHT22;34745;52.276;10.528;2023-10-31T10:38:12;11.90;1.00
48936;DHT22;34745;52.276;10.528;2023-10-31T10:40:44;11.80;1.00
48936;DHT22;34745;52.276;10.528;2023-10-31T10:43:13;11.90;1.00
48936;DHT22;34745;52.276;10.528;2023-10-31T10:45:44;11.90;1.00
48936;DHT22;34745;52.276;10.528;2023-10-31T10:48:13;11.90;1.00
48936;DHT22;34745;52.276;10.528;2023-10-31T10:50:43;11.90;1.00
48936;DHT22;34745;52.276;10.528;2023-10-31T10:53:20;11.90;1.00
48936;DHT22;34745;52.276;10.528;2023-10-31T10:55:54;11.90;1.00
48936;DHT22;34745;52.276;10.528;2023-10-31T10:58:25;11.90;1.00
48936;DHT22;34745;52.276;10.528;2023-10-31T11:00:55;12.00;1.00
48936;DHT22;34745;52.276;10.528;2023-10-31T11:03:24;11.90;1.00
48936;DHT22;34745;52.276;10.528;2023-10-31T11:05:53;11.90;1.00
48936;DHT22;34745;52.276;10.528;2023-10-31T11:08:21;11.90;1.00
48936;DHT22;34745;52.276;10.528;2023-10-31T11:10:52;11.90;1.00
48936;DHT22;34745;52.276;10.528;2023-10-31T11:13:21;12.00;1.00
48936;DHT22;34745;52.276;10.528;2023-10-31T11:15:53;12.10;1.00
48936;DHT22;34745;52.276;10.528;2023-10-31T11:18:22;12.10;1.00
48936;DHT22;34745;52.276;10.528;2023-10-31T11:20:51;12.10;1.00
48936;DHT22;34745;52.276;10.528;2023-10-31T11:23:18;12.20;1.00
48936;DHT22;34745;52.276;10.528;2023-10-31T11:25:50;12.20;1.00
48936;DHT22;34745;52.276;10.528;2023-10-31T11:28:21;12.30;1.00
48936;DHT22;34745;52.276;10.528;2023-10-31T11:30:49;12.30;1.00
48936;DHT22;34745;52.276;10.528;2023-10-31T11:33:20;12.30;1.00
48936;DHT22;34745;52.276;10.528;2023-10-31T11:35:50;12.40;1.00
48936;DHT22;34745;52.276;10.528;2023-10-31T11:38:30;12.40;1.00
48936;DHT22;34745;52.276;10.528;2023-10-31T11:41:00;12.40;1.00
48936;DHT22;34745;52.276;10.528;2023-10-31T11:43:50;12.40;1.00
48936;DHT22;34745;52.276;10.528;2023-10-31T11:46:19;12.40;1.00
48936;DHT22;34745;52.276;10.528;2023-10-31T11:48:48;12.40;1.00
48936;DHT22;34745;52.276;10.528;2023-10-31T11:51:17;12.40;1.00
48936;DHT22;34745;52.276;10.528;2023-10-31T11:53:44;12.50;1.00
48936;DHT22;34745;52.276;10.528;2023-10-31T11:56:14;12.40;1.00
48936;DHT22;34745;52.276;10.528;2023-10-31T11:58:42;12.40;1.00
48936;DHT22;34745;52.276;10.528;2023-10-31T12:01:09;12.40;1.00
48936;DHT22;34745;52.276;10.528;2023-10-31T12:03:37;12.50;1.00
48936;DHT22;34745;52.276;10.528;2023-10-31T12:06:07;12.40;1.00
48936;DHT22;34745;52.276;10.528;2023-10-31T12:08:37;12.40;1.00
48936;DHT22;34745;52.276;10.528;2023-10-31T12:11:08;12.30;1.00
48936;DHT22;34745;52.276;10.528;2023-10-31T12:13:38;12.30;1.00
48936;DHT22;34745;52.276;10.528;2023-10-31T12:16:07;12.30;1.00
48936;DHT22;34745;52.276;10.528;2023-10-31T12:18:35;12.30;1.00
48936;DHT22;34745;52.276;10.528;2023-10-31T12:21:03;12.20;1.00
48936;DHT22;34745;52.276;10.528;2023-10-31T12:23:31;12.20;1.00
48936;DHT22;34745;52.276;10.528;2023-10-31T12:25:58;12.20;1.00
48936;DHT22;34745;52.276;10.528;2023-10-31T12:28:26;12.20;1.00
48936;DHT22;34745;52.276;10.528;2023-10-31T12:30:56;12.10;1.00
48936;DHT22;34745;52.276;10.528;2023-10-31T12:33:26;12.20;1.00
48936;DHT22;34745;52.276;10.528;2023-10-31T12:35:57;12.10;1.00
48936;DHT22;34745;52.276;10.528;2023-10-31T12:38:25;12.20;1.00
48936;DHT22;34745;52.276;10.528;2023-10-31T12:40:53;12.20;1.00
48936;DHT22;34745;52.276;10.528;2023-10-31T12:43:21;12.20;1.00
48936;DHT22;34745;52.276;10.528;2023-10-31T12:45:48;12.20;1.00
48936;DHT22;34745;52.276;10.528;2023-10-31T12:48:24;12.20;1.00
48936;DHT22;34745;52.276;10.528;2023-10-31T12:51:06;12.30;1.00
48936;DHT22;34745;52.276;10.528;2023-10-31T12:53:34;12.20;1.00
48936;DHT22;34745;52.276;10.528;2023-10-31T12:56:02;12.20;1.00
48936;DHT22;34745;52.276;10.528;2023-10-31T12:58:30;12.20;1.00
48936;DHT22;34745;52.276;10.528;2023-10-31T13:00:57;12.20;1.00
48936;DHT22;34745;52.276;10.528;2023-10-31T13:03:26;12.20;1.00
48936;DHT22;34745;52.276;10.528;2023-10-31T13:05:53;12.30;1.00
48936;DHT22;34745;52.276;10.528;2023-10-31T13:08:20;12.30;1.00
48936;DHT22;34745;52.276;10.528;2023-10-31T13:10:49;12.30;1.00
48936;DHT22;34745;52.276;10.528;2023-10-31T13:13:17;12.40;1.00
48936;DHT22;34745;52.276;10.528;2023-10-31T13:15:44;12.40;1.00
48936;DHT22;34745;52.276;10.528;2023-10-31T13:18:11;12.40;1.00
48936;DHT22;34745;52.276;10.528;2023-10-31T13:20:39;12.40;1.00
48936;DHT22;34745;52.276;10.528;2023-10-31T13:23:07;12.40;1.00
48936;DHT22;34745;52.276;10.528;2023-10-31T13:25:34;12.40;1.00
48936;DHT22;34745;52.276;10.528;2023-10-31T13:28:02;12.30;1.00
48936;DHT22;34745;52.276;10.528;2023-10-31T13:30:30;12.30;1.00
48936;DHT22;34745;52.276;10.528;2023-10-31T13:32:58;12.30;1.00
48936;DHT22;34745;52.276;10.528;2023-10-31T13:35:25;12.30;1.00
48936;DHT22;34745;52.276;10.528;2023-10-31T13:37:53;12.20;1.00
48936;DHT22;34745;52.276;10.528;2023-10-31T13:40:21;12.30;1.00
48936;DHT22;34745;52.276;10.528;2023-10-31T13:42:48;12.30;1.00
48936;DHT22;34745;52.276;10.528;2023-10-31T13:45:15;12.30;1.00
48936;DHT22;34745;52.276;10.528;2023-10-31T13:47:42;12.30;1.00
48936;DHT22;34745;52.276;10.528;2023-10-31T13:50:10;12.30;1.00
48936;DHT22;34745;52.276;10.528;2023-10-31T13:52:37;12.30;1.00
48936;DHT22;34745;52.276;10.528;2023-10-31T13:55:07;12.20;1.00
48936;DHT22;34745;52.276;10.528;2023-10-31T13:57:34;12.30;1.00
48936;DHT22;34745;52.276;10.528;2023-10-31T14:00:02;12.30;1.00
48936;DHT22;34745;52.276;10.528;2023-10-31T14:02:29;12.30;1.00
48936;DHT22;34745;52.276;10.528;2023-10-31T14:04:59;12.30;1.00
48936;DHT22;34745;52.276;10.528;2023-10-31T14:07:27;12.30;1.00
48936;DHT22;34745;52.276;10.528;2023-10-31T14:09:54;12.30;1.00
48936;DHT22;34745;52.276;10.528;2023-10-31T14:12:24;12.60;1.00
48936;DHT22;34745;52.276;10.528;2023-10-31T14:14:52;12.30;1.00
48936;DHT22;34745;52.276;10.528;2023-10-31T14:17:19;12.40;1.00
48936;DHT22;34745;52.276;10.528;2023-10-31T14:19:46;12.40;1.00
48936;DHT22;34745;52.276;10.528;2023-10-31T14:22:13;12.40;1.00
48936;DHT22;34745;52.276;10.528;2023-10-31T14:24:41;12.40;1.00
48936;DHT22;34745;52.276;10.528;2023-10-31T14:27:08;12.40;1.00
48936;DHT22;34745;52.276;10.528;2023-10-31T14:29:36;12.60;1.00
48936;DHT22;34745;52.276;10.528;2023-10-31T14:32:08;12.40;1.00
48936;DHT22;34745;52.276;10.528;2023-10-31T14:34:35;12.40;1.00
48936;DHT22;34745;52.276;10.528;2023-10-31T14:37:02;12.40;1.00
48936;DHT22;34745;52.276;10.528;2023-10-31T14:39:29;12.40;1.00
48936;DHT22;34745;52.276;10.528;2023-10-31T14:41:57;12.60;1.00
48936;DHT22;34745;52.276;10.528;2023-10-31T14:44:23;12.50;1.00
48936;DHT22;34745;52.276;10.528;2023-10-31T14:46:52;12.40;1.00
48936;DHT22;34745;52.276;10.528;2023-10-31T14:49:20;12.50;1.00
48936;DHT22;34745;52.276;10.528;2023-10-31T14:51:47;12.40;1.00
48936;DHT22;34745;52.276;10.528;2023-10-31T14:54:14;12.50;1.00
48936;DHT22;34745;52.276;10.528;2023-10-31T14:56:41;12.40;1.00
48936;DHT22;34745;52.276;10.528;2023-10-31T14:59:09;12.50;1.00
48936;DHT22;34745;52.276;10.528;2023-10-31T15:01:36;12.40;1.00
48936;DHT22;34745;52.276;10.528;2023-10-31T15:04:05;12.40;1.00
48936;DHT22;34745;52.276;10.528;2023-10-31T15:06:32;12.40;1.00
48936;DHT22;34745;52.276;10.528;2023-10-31T15:08:59;12.40;1.00
48936;DHT22;34745;52.276;10.528;2023-10-31T15:11:26;12.40;1.00
48936;DHT22;34745;52.276;10.528;2023-10-31T15:13:54;12.40;1.00
48936;DHT22;34745;52.276;10.528;2023-10-31T15:16:21;12.40;1.00
48936;DHT22;34745;52.276;10.528;2023-10-31T15:18:48;12.40;1.00
48936;DHT22;34745;52.276;10.528;2023-10-31T15:21:16;12.30;1.00
48936;DHT22;34745;52.276;10.528;2023-10-31T15:23:44;12.30;1.00
48936;DHT22;34745;52.276;10.528;2023-10-31T15:26:11;12.20;1.00
48936;DHT22;34745;52.276;10.528;2023-10-31T15:28:41;12.20;1.00